Time;durP1;ratioP1;P1;durP2;ratioP2;P2;SDS_P1;SDS_P2;PMS_P1;PMS_P2;Temp;Humidity;BMP_temperature;BMP_pressure;BME280_temperature;BME280_humidity;BME280_pressure;Samples;Min_cycle;Max_cycle;Signal;HPM_P1;HPM_P2
2023/02/04 00:00:57;;;;;;;;;16.25;14.75;;;;;;;;5039962;28;13454;-67
2023/02/04 00:03:22;;;;;;;;;17.00;16.00;;;;;;;;5030809;28;13858;-67
2023/02/04 00:05:47;;;;;;;;;18.75;18.75;;;;;;;;5027429;28;14310;-67
2023/02/04 00:08:12;;;;;;;;;15.75;13.50;;;;;;;;5031862;28;8797;-65
2023/02/04 00:10:38;;;;;;;;;;;;;;;;;;5034438;28;8821;-66
2023/02/04 00:13:03;;;;;;;;;7.50;7.50;;;;;;;;5032107;28;8904;-66
2023/02/04 00:15:29;;;;;;;;;15.50;15.00;;;;;;;;5028090;28;14193;-66
2023/02/04 00:17:54;;;;;;;;;13.00;12.50;;;;;;;;5031689;28;8813;-67
2023/02/04 00:20:19;;;;;;;;;18.75;17.50;;;;;;;;5027946;28;13617;-66
2023/02/04 00:22:45;;;;;;;;;14.00;10.75;;;;;;;;5028252;28;13521;-66
2023/02/04 00:25:11;;;;;;;;;11.50;10.00;;;;;;;;5030021;28;8813;-66
2023/02/04 00:27:36;;;;;;;;;11.00;8.25;;;;;;;;5029973;28;8812;-66
2023/02/04 00:30:02;;;;;;;;;11.50;11.50;;;;;;;;5026248;28;14300;-66
2023/02/04 00:32:27;;;;;;;;;14.00;14.00;;;;;;;;5027463;28;14284;-66
2023/02/04 00:34:52;;;;;;;;;8.25;8.25;;;;;;;;5031440;28;8816;-66
2023/02/04 00:37:18;;;;;;;;;12.67;11.67;;;;;;;;5027495;28;13439;-67
2023/02/04 00:39:43;;;;;;;;;15.67;14.00;;;;;;;;5027865;28;13621;-66
2023/02/04 00:42:08;;;;;;;;;15.50;11.50;;;;;;;;5027310;28;13531;-67
2023/02/04 00:44:35;;;;;;;;;10.25;10.25;;;;;;;;5025855;28;13548;-67
2023/02/04 00:47:00;;;;;;;;;10.50;9.50;;;;;;;;5031008;28;8805;-67
2023/02/04 00:49:25;;;;;;;;;8.00;5.00;;;;;;;;5029513;28;11567;-65
2023/02/04 00:51:51;;;;;;;;;10.00;10.00;;;;;;;;5027194;28;14256;-66
2023/02/04 00:54:16;;;;;;;;;15.75;10.50;;;;;;;;5025656;28;13396;-66
2023/02/04 00:56:42;;;;;;;;;9.00;8.00;;;;;;;;5030959;28;8831;-67
2023/02/04 00:59:07;;;;;;;;;10.50;10.50;;;;;;;;5026878;28;13548;-67
2023/02/04 01:01:33;;;;;;;;;15.00;14.00;;;;;;;;5025594;28;14351;-66
2023/02/04 01:03:58;;;;;;;;;11.40;11.40;;;;;;;;5025517;28;13644;-66
2023/02/04 01:06:24;;;;;;;;;12.00;11.00;;;;;;;;5027297;28;14269;-66
2023/02/04 01:08:49;;;;;;;;;14.25;14.00;;;;;;;;5026870;28;13520;-66
2023/02/04 01:11:15;;;;;;;;;12.67;10.00;;;;;;;;5026848;28;13661;-66
2023/02/04 01:13:40;;;;;;;;;13.33;11.00;;;;;;;;5026333;28;13509;-67
2023/02/04 01:16:05;;;;;;;;;12.33;11.00;;;;;;;;5026368;28;15229;-66
2023/02/04 01:18:30;;;;;;;;;14.00;12.00;;;;;;;;5026772;28;14188;-66
2023/02/04 01:20:56;;;;;;;;;8.33;8.33;;;;;;;;5026971;28;13583;-65
2023/02/04 01:23:21;;;;;;;;;9.75;9.25;;;;;;;;5026889;28;13476;-66
2023/02/04 01:25:46;;;;;;;;;13.00;9.67;;;;;;;;5026743;28;14184;-66
2023/02/04 01:28:11;;;;;;;;;10.33;10.33;;;;;;;;5026790;28;13559;-66
2023/02/04 01:30:37;;;;;;;;;12.25;10.25;;;;;;;;5026447;28;13467;-65
2023/02/04 01:33:02;;;;;;;;;7.25;5.50;;;;;;;;5030113;28;8844;-67
2023/02/04 01:35:27;;;;;;;;;6.00;6.00;;;;;;;;5030112;28;8835;-66
2023/02/04 01:37:52;;;;;;;;;9.75;9.75;;;;;;;;5026802;28;13444;-65
2023/02/04 01:40:18;;;;;;;;;17.25;9.50;;;;;;;;5026542;28;14339;-66
2023/02/04 01:42:43;;;;;;;;;8.00;7.50;;;;;;;;5030069;28;8805;-66
2023/02/04 01:45:09;;;;;;;;;7.00;7.00;;;;;;;;5029965;28;8832;-66
2023/02/04 01:47:34;;;;;;;;;11.50;11.50;;;;;;;;5026267;28;13426;-66
2023/02/04 01:50:00;;;;;;;;;12.50;10.00;;;;;;;;5025982;28;13516;-66
2023/02/04 01:52:26;;;;;;;;;16.50;11.75;;;;;;;;5025864;28;13664;-66
2023/02/04 01:54:52;;;;;;;;;20.40;14.40;;;;;;;;5026239;28;13644;-66
2023/02/04 01:57:17;;;;;;;;;14.00;12.25;;;;;;;;5025915;28;14333;-66
2023/02/04 01:59:44;;;;;;;;;10.00;10.00;;;;;;;;5026218;28;13528;-66
2023/02/04 02:02:28;;;;;;;;;8.00;8.00;;;;;;;;5029521;28;8912;-66
2023/02/04 02:04:53;;;;;;;;;6.75;4.00;;;;;;;;5029653;28;11569;-66
2023/02/04 02:07:18;;;;;;;;;1.00;1.00;;;;;;;;5029319;28;11565;-67
2023/02/04 02:09:43;;;;;;;;;7.50;7.50;;;;;;;;5029453;28;8820;-66
2023/02/04 02:12:09;;;;;;;;;14.25;13.00;;;;;;;;5029184;28;8825;-66
2023/02/04 02:14:34;;;;;;;;;14.00;12.50;;;;;;;;5025626;28;13514;-66
2023/02/04 02:16:59;;;;;;;;;14.00;14.00;;;;;;;;5026230;28;13659;-66
2023/02/04 02:19:31;;;;;;;;;17.00;14.25;;;;;;;;5029456;28;9562;-66
2023/02/04 02:22:04;;;;;;;;;15.00;13.50;;;;;;;;5029293;28;8813;-66
2023/02/04 02:24:30;;;;;;;;;19.40;18.20;;;;;;;;5023826;28;14277;-66
2023/02/04 02:26:57;;;;;;;;;16.50;13.50;;;;;;;;5028689;28;8805;-66
2023/02/04 02:29:22;;;;;;;;;11.25;11.25;;;;;;;;5028932;28;12278;-66
2023/02/04 02:31:48;;;;;;;;;6.00;4.25;;;;;;;;5028757;28;11518;-66
2023/02/04 02:34:13;;;;;;;;;24.80;22.40;;;;;;;;5025328;28;13794;-66
2023/02/04 02:36:39;;;;;;;;;23.00;21.00;;;;;;;;5042807;23;13662;-66
2023/02/04 02:39:04;;;;;;;;;35.25;29.75;;;;;;;;4985569;28;14230;-67
2023/02/04 02:41:30;;;;;;;;;16.00;16.00;;;;;;;;4985877;28;14361;-66
2023/02/04 02:43:55;;;;;;;;;15.50;11.00;;;;;;;;4989646;28;8803;-66
2023/02/04 02:46:21;;;;;;;;;14.25;13.25;;;;;;;;4985555;28;14150;-67
2023/02/04 02:48:46;;;;;;;;;14.75;11.50;;;;;;;;4985880;28;14386;-67
2023/02/04 02:51:11;;;;;;;;;14.50;14.50;;;;;;;;4984155;28;13606;-67
2023/02/04 02:53:37;;;;;;;;;18.67;17.00;;;;;;;;4985540;28;13626;-66
2023/02/04 02:56:03;;;;;;;;;18.67;15.33;;;;;;;;4985629;28;13595;-66
2023/02/04 02:58:33;;;;;;;;;12.00;11.00;;;;;;;;4989392;28;8811;-67
2023/02/04 03:00:59;;;;;;;;;12.50;12.00;;;;;;;;4989032;28;11523;-66
2023/02/04 03:03:27;;;;;;;;;9.25;8.00;;;;;;;;4989161;28;11519;-65
2023/02/04 03:05:55;;;;;;;;;21.80;20.40;;;;;;;;4985374;28;14340;-66
2023/02/04 03:08:20;;;;;;;;;14.50;12.75;;;;;;;;4985436;28;13648;-67
2023/02/04 03:10:46;;;;;;;;;18.00;13.00;;;;;;;;4985338;28;14309;-67
2023/02/04 03:13:13;;;;;;;;;13.75;12.75;;;;;;;;4985440;28;13539;-67
2023/02/04 03:15:39;;;;;;;;;11.00;11.00;;;;;;;;4985744;28;13647;-67
2023/02/04 03:18:04;;;;;;;;;17.80;14.80;;;;;;;;4985059;28;13522;-68
2023/02/04 03:20:30;;;;;;;;;20.25;18.25;;;;;;;;4984927;28;13559;-66
2023/02/04 03:22:56;;;;;;;;;20.50;13.75;;;;;;;;4983644;28;13535;-66
2023/02/04 03:25:23;;;;;;;;;14.75;14.75;;;;;;;;4985010;28;14397;-66
2023/02/04 03:27:49;;;;;;;;;9.50;7.75;;;;;;;;4988966;28;9550;-66
2023/02/04 03:30:14;;;;;;;;;21.00;19.00;;;;;;;;4984815;28;14301;-67
2023/02/04 03:32:40;;;;;;;;;19.25;16.75;;;;;;;;4985087;28;13614;-66
2023/02/04 03:35:05;;;;;;;;;12.25;9.75;;;;;;;;4985190;28;14488;-66
2023/02/04 03:37:31;;;;;;;;;16.67;16.00;;;;;;;;4985325;28;13520;-67
2023/02/04 03:39:56;;;;;;;;;13.75;12.00;;;;;;;;4987533;28;13588;-67
2023/02/04 03:42:21;;;;;;;;;13.00;13.00;;;;;;;;4988480;28;13619;-67
2023/02/04 03:44:47;;;;;;;;;20.00;16.50;;;;;;;;4987282;28;13559;-67
2023/02/04 03:47:12;;;;;;;;;20.50;19.00;;;;;;;;4988649;28;13590;-66
2023/02/04 03:49:37;;;;;;;;;17.00;13.00;;;;;;;;4988428;28;13624;-66
2023/02/04 03:52:03;;;;;;;;;13.50;10.75;;;;;;;;4988427;28;14347;-67
2023/02/04 03:54:28;;;;;;;;;18.00;16.00;;;;;;;;4988745;28;13537;-65
2023/02/04 03:56:53;;;;;;;;;17.33;12.00;;;;;;;;4988808;28;13585;-66
2023/02/04 03:59:18;;;;;;;;;6.75;6.00;;;;;;;;4992464;28;8949;-66
2023/02/04 04:01:44;;;;;;;;;19.00;19.00;;;;;;;;4988392;28;13620;-66
2023/02/04 04:04:09;;;;;;;;;16.67;14.33;;;;;;;;4988761;28;14298;-66
2023/02/04 04:06:34;;;;;;;;;17.00;14.00;;;;;;;;4988656;28;13582;-67
2023/02/04 04:08:59;;;;;;;;;15.75;15.75;;;;;;;;4988448;28;13605;-67
2023/02/04 04:11:25;;;;;;;;;15.75;13.25;;;;;;;;4988527;28;13657;-66
2023/02/04 04:13:50;;;;;;;;;21.75;16.00;;;;;;;;4988738;28;13534;-66
2023/02/04 04:16:15;;;;;;;;;7.50;7.00;;;;;;;;4992150;28;8825;-66
2023/02/04 04:18:41;;;;;;;;;13.00;11.00;;;;;;;;4988599;28;14170;-66
2023/02/04 04:21:06;;;;;;;;;22.75;22.00;;;;;;;;4988268;28;13657;-67
2023/02/04 04:23:31;;;;;;;;;20.75;20.25;;;;;;;;4988353;28;14274;-67
2023/02/04 04:25:56;;;;;;;;;26.25;23.00;;;;;;;;4988066;28;13572;-67
2023/02/04 04:28:22;;;;;;;;;22.67;19.67;;;;;;;;4988359;28;13603;-67
2023/02/04 04:30:47;;;;;;;;;5.25;5.25;;;;;;;;4988646;28;13579;-67
2023/02/04 04:33:12;;;;;;;;;19.50;15.50;;;;;;;;4988225;28;13494;-65
2023/02/04 04:35:37;;;;;;;;;9.25;8.00;;;;;;;;4981331;28;8856;-66
2023/02/04 04:38:03;;;;;;;;;12.50;10.00;;;;;;;;4968888;28;13606;-65
2023/02/04 04:40:28;;;;;;;;;13.75;11.00;;;;;;;;4983384;28;13753;-66
2023/02/04 04:42:54;;;;;;;;;14.25;14.00;;;;;;;;4968261;28;13558;-66
2023/02/04 04:45:19;;;;;;;;;21.75;19.00;;;;;;;;4968340;28;13549;-66
2023/02/04 04:47:45;;;;;;;;;22.25;21.75;;;;;;;;4969805;28;13604;-66
2023/02/04 04:50:10;;;;;;;;;22.00;18.00;;;;;;;;4969284;28;13613;-69
2023/02/04 04:52:35;;;;;;;;;15.00;14.00;;;;;;;;4973816;28;13618;-69
2023/02/04 04:55:04;;;;;;;;;14.00;14.00;;;;;;;;4988051;28;13502;-70
2023/02/04 04:57:29;;;;;;;;;5.00;5.00;;;;;;;;4990810;28;9537;-67
2023/02/04 04:59:55;;;;;;;;;11.50;11.50;;;;;;;;4988671;28;13554;-67
2023/02/04 05:02:20;;;;;;;;;9.67;7.33;;;;;;;;4989859;28;14255;-67
2023/02/04 05:04:45;;;;;;;;;12.00;11.00;;;;;;;;4988986;28;13610;-67
2023/02/04 05:07:10;;;;;;;;;8.50;6.50;;;;;;;;4990927;28;13601;-68
2023/02/04 05:09:36;;;;;;;;;8.50;7.50;;;;;;;;4990973;28;13522;-68
2023/02/04 05:12:01;;;;;;;;;9.00;9.00;;;;;;;;4984793;28;13600;-68
2023/02/04 05:14:26;;;;;;;;;10.75;9.00;;;;;;;;4969079;28;13495;-67
2023/02/04 05:16:52;;;;;;;;;8.75;6.00;;;;;;;;4977912;28;8841;-67
2023/02/04 05:19:17;;;;;;;;;20.50;14.25;;;;;;;;4976318;28;13627;-66
2023/02/04 05:21:42;;;;;;;;;17.00;13.00;;;;;;;;4968299;28;13612;-68
2023/02/04 05:24:08;;;;;;;;;14.75;13.50;;;;;;;;4974952;28;13417;-67
2023/02/04 05:26:33;;;;;;;;;9.50;9.50;;;;;;;;4977682;28;13601;-68
2023/02/04 05:28:59;;;;;;;;;14.33;13.33;;;;;;;;4977515;28;13667;-70
2023/02/04 05:31:24;;;;;;;;;12.33;12.33;;;;;;;;4977516;28;13732;-67
2023/02/04 05:33:49;;;;;;;;;11.00;11.00;;;;;;;;4986139;28;14349;-67
2023/02/04 05:36:14;;;;;;;;;10.33;10.00;;;;;;;;4987165;28;13547;-68
2023/02/04 05:38:40;;;;;;;;;9.00;8.50;;;;;;;;4987434;28;13627;-69
2023/02/04 05:41:05;;;;;;;;;10.00;9.00;;;;;;;;4987468;28;13462;-68
2023/02/04 05:43:30;;;;;;;;;11.50;9.75;;;;;;;;4987589;28;14277;-68
2023/02/04 05:45:56;;;;;;;;;9.00;9.00;;;;;;;;4986005;28;13527;-68
2023/02/04 05:48:21;;;;;;;;;13.00;13.00;;;;;;;;4940155;28;13480;-68
2023/02/04 05:50:47;;;;;;;;;12.33;12.33;;;;;;;;4997620;28;14295;-67
2023/02/04 05:53:12;;;;;;;;;13.00;11.00;;;;;;;;4988980;28;13612;-67
2023/02/04 05:55:37;;;;;;;;;10.00;10.00;;;;;;;;5001937;28;13770;-70
2023/02/04 05:58:02;;;;;;;;;11.00;11.00;;;;;;;;4986279;28;14271;-67
2023/02/04 06:00:28;;;;;;;;;13.00;11.00;;;;;;;;4986761;28;13582;-67
2023/02/04 06:02:53;;;;;;;;;14.67;14.67;;;;;;;;4987203;28;14469;-67
2023/02/04 06:05:18;;;;;;;;;14.25;14.25;;;;;;;;4987132;28;13583;-67
2023/02/04 06:07:43;;;;;;;;;18.33;18.33;;;;;;;;4986812;28;14421;-76
2023/02/04 06:10:09;;;;;;;;;10.00;9.50;;;;;;;;4990782;28;8841;-68
2023/02/04 06:12:35;;;;;;;;;17.60;17.00;;;;;;;;4987066;28;13572;-69
2023/02/04 06:15:00;;;;;;;;;14.00;14.00;;;;;;;;4987177;28;13756;-69
2023/02/04 06:17:25;;;;;;;;;12.00;9.75;;;;;;;;4987122;28;13575;-69
2023/02/04 06:19:51;;;;;;;;;18.75;17.75;;;;;;;;4986386;28;14378;-68
2023/02/04 06:22:16;;;;;;;;;22.25;19.50;;;;;;;;4986802;28;14314;-70
2023/02/04 06:24:41;;;;;;;;;20.75;18.25;;;;;;;;4984995;28;13591;-68
2023/02/04 06:27:07;;;;;;;;;14.00;13.00;;;;;;;;4986870;28;13543;-68
2023/02/04 06:29:32;;;;;;;;;19.00;14.00;;;;;;;;4985492;28;13614;-69
2023/02/04 06:31:57;;;;;;;;;14.00;14.00;;;;;;;;4986375;28;13619;-68
2023/02/04 06:34:22;;;;;;;;;14.25;14.25;;;;;;;;4986549;28;13582;-68
2023/02/04 06:36:47;;;;;;;;;18.75;15.50;;;;;;;;4986333;28;13621;-69
2023/02/04 06:39:13;;;;;;;;;15.00;13.00;;;;;;;;4986645;28;13584;-68
2023/02/04 06:41:38;;;;;;;;;18.00;14.67;;;;;;;;4986383;28;13566;-69
2023/02/04 06:44:03;;;;;;;;;14.00;11.67;;;;;;;;4985403;28;13574;-67
2023/02/04 06:46:28;;;;;;;;;12.25;11.50;;;;;;;;4986454;28;13535;-67
2023/02/04 06:48:55;;;;;;;;;14.00;11.00;;;;;;;;4986257;28;13607;-69
2023/02/04 06:51:20;;;;;;;;;19.00;15.00;;;;;;;;4971925;28;13627;-67
2023/02/04 06:53:45;;;;;;;;;13.00;13.00;;;;;;;;4966439;28;13593;-68
2023/02/04 06:56:11;;;;;;;;;14.33;13.00;;;;;;;;4967269;28;13532;-68
2023/02/04 06:58:36;;;;;;;;;14.25;14.00;;;;;;;;4967012;28;13570;-67
2023/02/04 07:01:01;;;;;;;;;21.33;18.00;;;;;;;;4976093;28;13647;-68
2023/02/04 07:03:26;;;;;;;;;21.67;15.67;;;;;;;;4983933;28;13582;-68
2023/02/04 07:05:53;;;;;;;;;10.50;10.00;;;;;;;;4990016;28;8938;-68
2023/02/04 07:08:18;;;;;;;;;19.80;17.00;;;;;;;;4986281;28;13590;-67
2023/02/04 07:10:43;;;;;;;;;18.00;17.75;;;;;;;;4979561;28;13588;-68
2023/02/04 07:13:08;;;;;;;;;26.50;18.00;;;;;;;;4967026;28;13565;-68
2023/02/04 07:15:34;;;;;;;;;25.75;19.50;;;;;;;;4970721;28;13578;-67
2023/02/04 07:17:59;;;;;;;;;25.75;23.00;;;;;;;;4970813;28;13759;-68
2023/02/04 07:20:24;;;;;;;;;23.00;21.00;;;;;;;;4970147;28;13585;-69
2023/02/04 07:22:49;;;;;;;;;19.75;17.25;;;;;;;;4971306;28;13617;-69
2023/02/04 07:25:16;;;;;;;;;26.50;21.75;;;;;;;;4988354;28;14311;-67
2023/02/04 07:27:42;;;;;;;;;27.00;22.00;;;;;;;;4989711;28;13544;-67
2023/02/04 07:30:07;;;;;;;;;19.00;19.00;;;;;;;;4989726;28;13725;-67
2023/02/04 07:32:33;;;;;;;;;30.25;23.25;;;;;;;;4989533;28;13575;-67
2023/02/04 07:34:58;;;;;;;;;21.75;19.00;;;;;;;;4987015;28;13685;-68
2023/02/04 07:37:24;;;;;;;;;31.25;27.75;;;;;;;;4988693;28;13639;-67
2023/02/04 07:39:49;;;;;;;;;26.67;24.33;;;;;;;;4989149;28;13624;-66
2023/02/04 07:42:14;;;;;;;;;28.00;26.50;;;;;;;;5004769;28;13769;-66
2023/02/04 07:44:40;;;;;;;;;28.67;27.00;;;;;;;;4993319;28;8799;-66
2023/02/04 07:47:05;;;;;;;;;27.25;23.50;;;;;;;;4993270;28;8791;-65
2023/02/04 07:49:30;;;;;;;;;39.00;35.00;;;;;;;;5004278;28;14139;-66
2023/02/04 07:51:56;;;;;;;;;31.67;26.33;;;;;;;;4993115;28;8810;-66
2023/02/04 07:54:21;;;;;;;;;86.50;65.75;;;;;;;;4989361;28;13579;-66
2023/02/04 07:56:47;;;;;;;;;79.50;62.50;;;;;;;;4989617;28;13825;-68
2023/02/04 07:59:12;;;;;;;;;89.67;72.33;;;;;;;;4988211;28;14384;-66
2023/02/04 08:01:37;;;;;;;;;85.33;67.00;;;;;;;;4987794;28;13735;-67
2023/02/04 08:04:02;;;;;;;;;73.33;55.67;;;;;;;;4995672;28;10033;-66
2023/02/04 08:06:28;;;;;;;;;55.00;46.67;;;;;;;;4998647;28;8821;-65
2023/02/04 08:08:53;;;;;;;;;45.67;43.00;;;;;;;;4994843;28;8856;-66
2023/02/04 08:11:18;;;;;;;;;46.67;43.33;;;;;;;;4992898;28;8835;-65
2023/02/04 08:13:44;;;;;;;;;40.67;36.33;;;;;;;;4992601;28;8918;-66
2023/02/04 08:16:09;;;;;;;;;34.33;27.67;;;;;;;;4992638;28;9618;-67
2023/02/04 08:18:34;;;;;;;;;29.67;29.00;;;;;;;;4992430;28;8794;-66
2023/02/04 08:21:00;;;;;;;;;37.33;30.33;;;;;;;;4992434;28;8819;-66
2023/02/04 08:23:25;;;;;;;;;30.00;30.00;;;;;;;;4992115;28;8815;-67
2023/02/04 08:25:51;;;;;;;;;31.67;30.33;;;;;;;;4992311;28;8929;-66
2023/02/04 08:28:16;;;;;;;;;40.00;33.00;;;;;;;;4992454;28;8872;-67
2023/02/04 08:30:41;;;;;;;;;39.00;34.33;;;;;;;;4991929;28;8791;-66
2023/02/04 08:33:06;;;;;;;;;37.33;31.33;;;;;;;;4992097;28;8822;-68
2023/02/04 08:35:32;;;;;;;;;21.00;17.33;;;;;;;;4991972;28;8799;-67
2023/02/04 08:37:57;;;;;;;;;33.67;28.00;;;;;;;;4992263;28;9635;-68
2023/02/04 08:40:22;;;;;;;;;31.50;27.75;;;;;;;;5006883;28;8818;-69
2023/02/04 08:42:47;;;;;;;;;23.50;22.00;;;;;;;;4991998;28;8798;-66
2023/02/04 08:45:13;;;;;;;;;33.25;27.75;;;;;;;;4991957;28;8933;-67
2023/02/04 08:47:38;;;;;;;;;26.25;24.00;;;;;;;;4991792;28;8802;-66
2023/02/04 08:50:03;;;;;;;;;28.00;26.25;;;;;;;;4991444;28;8815;-66
2023/02/04 08:52:29;;;;;;;;;25.50;23.50;;;;;;;;4991633;28;8810;-67
2023/02/04 08:54:54;;;;;;;;;27.00;25.00;;;;;;;;4991776;28;8833;-66
2023/02/04 08:57:19;;;;;;;;;31.50;26.50;;;;;;;;4991528;28;8925;-66
2023/02/04 08:59:44;;;;;;;;;31.75;28.00;;;;;;;;4991396;28;8786;-66
2023/02/04 09:02:10;;;;;;;;;35.75;33.75;;;;;;;;4991346;28;8806;-67
2023/02/04 09:04:35;;;;;;;;;34.00;28.50;;;;;;;;4991221;28;8791;-69
2023/02/04 09:07:00;;;;;;;;;30.75;27.25;;;;;;;;4991411;28;8814;-67
2023/02/04 09:09:26;;;;;;;;;29.50;28.25;;;;;;;;5006247;28;8811;-66
2023/02/04 09:11:51;;;;;;;;;23.75;23.75;;;;;;;;4991427;28;8802;-68
2023/02/04 09:14:16;;;;;;;;;29.75;29.00;;;;;;;;4991306;28;8794;-69
2023/02/04 09:16:42;;;;;;;;;33.00;26.50;;;;;;;;4990066;28;8819;-68
2023/02/04 09:19:09;;;;;;;;;30.50;27.00;;;;;;;;4991254;28;8808;-68
2023/02/04 09:21:35;;;;;;;;;26.50;26.50;;;;;;;;4991127;28;9534;-67
2023/02/04 09:24:00;;;;;;;;;36.00;29.50;;;;;;;;4991113;28;11557;-66
2023/02/04 09:26:25;;;;;;;;;38.00;31.00;;;;;;;;4991226;28;8779;-67
2023/02/04 09:28:51;;;;;;;;;32.50;26.75;;;;;;;;4991164;28;8888;-67
2023/02/04 09:31:16;;;;;;;;;25.00;24.00;;;;;;;;4986282;28;8862;-66
2023/02/04 09:33:41;;;;;;;;;33.25;23.75;;;;;;;;4990510;28;8849;-66
2023/02/04 09:36:07;;;;;;;;;46.00;42.25;;;;;;;;4990004;28;8941;-67
2023/02/04 09:38:32;;;;;;;;;93.33;67.33;;;;;;;;4991435;28;8838;-66
2023/02/04 09:41:06;;;;;;;;;26.50;23.75;;;;;;;;4991029;28;8806;-67
2023/02/04 09:43:34;;;;;;;;;28.00;24.50;;;;;;;;4991462;28;8806;-67
2023/02/04 09:45:59;;;;;;;;;24.50;20.00;;;;;;;;4990552;28;11565;-67
2023/02/04 09:48:25;;;;;;;;;27.00;23.50;;;;;;;;4990876;28;11537;-66
2023/02/04 09:50:51;;;;;;;;;21.00;20.00;;;;;;;;4990617;28;8904;-65
2023/02/04 09:53:20;;;;;;;;;21.50;19.00;;;;;;;;4990160;28;8815;-66
2023/02/04 09:55:46;;;;;;;;;23.00;18.50;;;;;;;;4990411;28;11544;-66
2023/02/04 09:58:18;;;;;;;;;19.75;16.50;;;;;;;;5005528;28;11576;-66
2023/02/04 10:00:49;;;;;;;;;18.75;15.50;;;;;;;;4990044;28;11576;-66
2023/02/04 10:03:17;;;;;;;;;12.75;10.00;;;;;;;;4990366;28;11535;-66
2023/02/04 10:05:43;;;;;;;;;14.25;10.25;;;;;;;;4990419;28;11531;-66
2023/02/04 10:08:13;;;;;;;;;68.00;56.00;;;;;;;;4990599;28;12301;-66
2023/02/04 10:10:38;;;;;;;;;56.00;46.00;;;;;;;;4990071;28;8815;-66
2023/02/04 10:13:04;;;;;;;;;24.25;21.00;;;;;;;;4989781;28;11664;-67
2023/02/04 10:15:29;;;;;;;;;30.25;27.25;;;;;;;;4989841;28;8845;-66
2023/02/04 10:17:59;;;;;;;;;12.75;10.00;;;;;;;;4990178;28;8861;-67
2023/02/04 10:20:25;;;;;;;;;9.25;7.50;;;;;;;;5005086;28;8826;-66
2023/02/04 10:22:51;;;;;;;;;7.50;7.50;;;;;;;;4990339;28;11559;-66
2023/02/04 10:25:18;;;;;;;;;4.50;4.50;;;;;;;;4990149;28;8818;-67
2023/02/04 10:28:01;;;;;;;;;5.25;5.00;;;;;;;;4989979;28;11609;-68
2023/02/04 10:30:32;;;;;;;;;6.00;6.00;;;;;;;;4988847;28;11505;-66
2023/02/04 10:32:57;;;;;;;;;12.00;8.00;;;;;;;;4989585;28;11512;-67
2023/02/04 10:35:22;;;;;;;;;6.00;6.00;;;;;;;;4989622;28;11598;-66
2023/02/04 10:38:01;;;;;;;;;5.50;4.25;;;;;;;;4989886;28;8839;-67
2023/02/04 10:40:26;;;;;;;;;5.00;5.00;;;;;;;;4989693;28;8806;-66
2023/02/04 10:42:52;;;;;;;;;5.75;5.00;;;;;;;;4989725;28;12321;-66
2023/02/04 10:45:24;;;;;;;;;8.25;4.50;;;;;;;;4989060;28;8811;-66
2023/02/04 10:47:50;;;;;;;;;8.00;6.00;;;;;;;;4990132;28;8815;-66
2023/02/04 10:50:20;;;;;;;;;7.00;6.00;;;;;;;;4989968;28;11480;-67
2023/02/04 10:52:48;;;;;;;;;4.50;4.25;;;;;;;;4989844;28;11548;-67
2023/02/04 10:55:15;;;;;;;;;8.25;6.00;;;;;;;;4990103;28;11486;-66
2023/02/04 10:57:42;;;;;;;;;8.50;6.00;;;;;;;;4990054;28;11457;-66
2023/02/04 11:00:18;;;;;;;;;9.75;9.75;;;;;;;;4990713;28;11522;-67
2023/02/04 11:02:49;;;;;;;;;7.50;6.50;;;;;;;;4992688;28;11568;-67
2023/02/04 11:05:14;;;;;;;;;8.75;6.25;;;;;;;;4990186;28;11491;-67
2023/02/04 11:07:40;;;;;;;;;9.50;7.75;;;;;;;;4990085;28;12245;-66
2023/02/04 11:10:09;;;;;;;;;9.25;8.25;;;;;;;;4989867;28;8825;-67
2023/02/04 11:12:42;;;;;;;;;10.00;9.00;;;;;;;;4989822;28;8823;-66
2023/02/04 11:15:26;;;;;;;;;11.00;10.25;;;;;;;;4989867;28;12162;-65
2023/02/04 11:18:01;;;;;;;;;10.25;8.00;;;;;;;;4989013;28;10778;-65
2023/02/04 11:20:30;;;;;;;;;11.33;9.00;;;;;;;;4989367;28;9947;-65
2023/02/04 11:22:55;;;;;;;;;9.00;7.50;;;;;;;;4990127;28;9188;-67
2023/02/04 11:25:30;;;;;;;;;9.00;7.00;;;;;;;;4989958;28;8803;-68
2023/02/04 11:27:56;;;;;;;;;7.25;7.25;;;;;;;;4990084;28;8794;-67
2023/02/04 11:30:22;;;;;;;;;9.33;9.33;;;;;;;;5004601;28;8825;-67
2023/02/04 11:33:05;;;;;;;;;15.67;13.00;;;;;;;;4989799;28;8936;-67
2023/02/04 11:35:30;;;;;;;;;10.25;9.00;;;;;;;;4989875;28;8984;-67
2023/02/04 11:37:56;;;;;;;;;12.67;11.67;;;;;;;;4990464;28;8819;-66
2023/02/04 11:40:21;;;;;;;;;9.33;9.33;;;;;;;;4989773;28;8814;-67
2023/02/04 11:42:46;;;;;;;;;12.00;12.00;;;;;;;;4989439;28;11499;-68
2023/02/04 11:45:12;;;;;;;;;11.67;11.33;;;;;;;;4989500;28;8779;-66
2023/02/04 11:47:37;;;;;;;;;17.33;16.67;;;;;;;;4989849;28;8794;-67
2023/02/04 11:50:10;;;;;;;;;18.25;16.00;;;;;;;;5004735;28;9554;-67
2023/02/04 11:52:35;;;;;;;;;14.50;13.75;;;;;;;;4989723;28;9698;-65
2023/02/04 11:55:00;;;;;;;;;13.50;13.00;;;;;;;;4989860;28;9837;-66
2023/02/04 12:00:00;;;;;;;;;;;;;;;;;;5111121;27;13541;-67
2023/02/04 12:02:26;;;;;;;;;;;;;;;;;;5109508;28;7532;-67
2023/02/04 12:04:51;;;;;;;;;;;;;;;;;;5082747;28;9665;-67
2023/02/04 12:08:33;;;;;;;;;13.75;12.00;;;;;;;;5083540;27;13413;-67
2023/02/04 12:11:01;;;;;;;;;14.00;11.00;;;;;;;;5086165;28;10605;-67
2023/02/04 12:13:27;;;;;;;;;11.25;11.25;;;;;;;;5081174;28;10684;-67
2023/02/04 12:16:05;;;;;;;;;10.50;8.25;;;;;;;;5086344;28;10824;-66
2023/02/04 12:18:31;;;;;;;;;14.00;12.00;;;;;;;;5060942;27;10164;-66
2023/02/04 12:20:56;;;;;;;;;16.00;12.50;;;;;;;;5042678;28;11165;-67
2023/02/04 12:23:23;;;;;;;;;19.50;12.50;;;;;;;;5044246;28;8905;-66
2023/02/04 12:25:48;;;;;;;;;14.00;12.00;;;;;;;;5046036;28;8847;-66
2023/02/04 12:28:13;;;;;;;;;14.00;12.25;;;;;;;;5045966;28;11378;-66
2023/02/04 12:30:39;;;;;;;;;14.75;13.75;;;;;;;;5044973;28;8806;-67
2023/02/04 12:33:04;;;;;;;;;14.25;14.25;;;;;;;;5044138;28;9594;-66
2023/02/04 12:35:29;;;;;;;;;17.75;15.00;;;;;;;;5045963;28;8810;-66
2023/02/04 12:37:55;;;;;;;;;13.50;13.50;;;;;;;;5049731;22;8884;-68
2023/02/04 12:40:20;;;;;;;;;17.75;14.25;;;;;;;;5025723;28;8812;-67
2023/02/04 12:42:46;;;;;;;;;19.50;18.25;;;;;;;;5024927;28;8835;-67
2023/02/04 12:45:12;;;;;;;;;18.50;16.25;;;;;;;;5021779;28;8878;-68
2023/02/04 12:47:37;;;;;;;;;18.25;14.00;;;;;;;;5025749;28;8974;-67
2023/02/04 12:50:03;;;;;;;;;16.25;12.50;;;;;;;;5024738;28;11456;-67
2023/02/04 12:52:29;;;;;;;;;15.25;14.75;;;;;;;;5025726;28;8939;-67
2023/02/04 12:54:54;;;;;;;;;13.50;13.25;;;;;;;;5024099;28;11566;-67
2023/02/04 12:57:19;;;;;;;;;18.25;14.25;;;;;;;;5025398;28;8833;-68
2023/02/04 12:59:45;;;;;;;;;15.00;12.75;;;;;;;;5024792;28;8832;-67
2023/02/04 13:02:11;;;;;;;;;14.00;14.00;;;;;;;;5025540;28;9009;-68
2023/02/04 13:04:36;;;;;;;;;17.50;12.50;;;;;;;;5023508;28;11444;-67
2023/02/04 13:07:01;;;;;;;;;12.00;12.00;;;;;;;;5025254;28;8971;-68
2023/02/04 13:09:26;;;;;;;;;11.00;9.75;;;;;;;;5024707;28;8846;-67
2023/02/04 13:11:52;;;;;;;;;10.00;10.00;;;;;;;;5023882;28;8857;-68
2023/02/04 13:14:17;;;;;;;;;8.75;8.75;;;;;;;;5022986;28;8863;-69
2023/02/04 13:16:42;;;;;;;;;10.00;10.00;;;;;;;;5005170;28;8839;-68
2023/02/04 13:19:07;;;;;;;;;9.50;8.75;;;;;;;;4995961;28;8890;-68
2023/02/04 13:21:33;;;;;;;;;8.50;7.75;;;;;;;;5007492;28;8802;-68
2023/02/04 13:23:58;;;;;;;;;12.25;9.50;;;;;;;;4992563;28;8868;-68
2023/02/04 13:26:26;;;;;;;;;10.50;8.50;;;;;;;;4992097;28;8830;-68
2023/02/04 13:28:52;;;;;;;;;10.50;10.50;;;;;;;;4992060;28;8791;-69
2023/02/04 13:31:17;;;;;;;;;18.50;13.00;;;;;;;;5008177;28;12255;-68
2023/02/04 13:33:58;;;;;;;;;12.25;9.50;;;;;;;;5012133;28;8820;-69
2023/02/04 13:36:26;;;;;;;;;12.00;11.00;;;;;;;;5011188;28;8839;-69
2023/02/04 13:38:51;;;;;;;;;10.75;10.50;;;;;;;;5008647;28;11496;-69
2023/02/04 13:41:17;;;;;;;;;10.00;10.00;;;;;;;;5010710;28;12331;-69
2023/02/04 13:43:49;;;;;;;;;12.50;12.00;;;;;;;;5009273;28;8938;-69
2023/02/04 13:46:15;;;;;;;;;6.00;6.00;;;;;;;;5010404;28;8816;-69
2023/02/04 13:48:40;;;;;;;;;12.75;9.75;;;;;;;;5010927;28;11493;-69
2023/02/04 13:51:05;;;;;;;;;14.25;12.00;;;;;;;;5011198;28;8772;-69
2023/02/04 13:53:42;;;;;;;;;16.00;12.75;;;;;;;;5010742;28;9596;-68
2023/02/04 13:56:07;;;;;;;;;12.50;10.50;;;;;;;;5011740;28;8812;-72
2023/02/04 13:58:33;;;;;;;;;11.00;11.00;;;;;;;;5011526;28;11466;-68
2023/02/04 14:00:58;;;;;;;;;10.00;10.00;;;;;;;;5011319;28;8888;-69
2023/02/04 14:03:24;;;;;;;;;14.00;14.00;;;;;;;;5010854;28;8962;-68
2023/02/04 14:05:50;;;;;;;;;13.50;11.00;;;;;;;;5026070;28;8840;-68
2023/02/04 14:08:15;;;;;;;;;14.00;13.00;;;;;;;;5011178;28;8852;-72
2023/02/04 14:10:41;;;;;;;;;13.25;12.25;;;;;;;;5010834;28;8893;-70
2023/02/04 14:13:09;;;;;;;;;13.00;9.25;;;;;;;;5026468;28;8923;-69
2023/02/04 14:15:39;;;;;;;;;10.00;8.50;;;;;;;;5009727;28;8947;-67
2023/02/04 14:18:05;;;;;;;;;8.75;8.00;;;;;;;;5010883;28;11503;-68
2023/02/04 14:20:33;;;;;;;;;17.75;13.00;;;;;;;;5010420;28;11453;-68
2023/02/04 14:22:58;;;;;;;;;12.75;9.25;;;;;;;;5011009;28;8804;-69
2023/02/04 14:25:24;;;;;;;;;12.75;12.00;;;;;;;;5011058;28;11603;-68